sensor_id;sensor_type;location;lat;lon;timestamp;pressure;altitude;pressure_sealevel;temperature;humidity
4326;BME280;58429;49.826;10.880;2023-12-14T00:00:44;97502;;;3.84;89.28
4326;BME280;58429;49.826;10.880;2023-12-14T00:01:44;97503;;;3.85;89.3
4326;BME280;58429;49.826;10.880;2023-12-14T00:02:44;97502;;;3.85;89.32
4326;BME280;58429;49.826;10.880;2023-12-14T00:03:44;97507;;;3.85;89.42
4326;BME280;58429;49.826;10.880;2023-12-14T00:04:44;97505;;;3.86;89.43
4326;BME280;58429;49.826;10.880;2023-12-14T00:05:44;97512;;;3.83;89.48
4326;BME280;58429;49.826;10.880;2023-12-14T00:06:44;97511;;;3.81;89.63
4326;BME280;58429;49.826;10.880;2023-12-14T00:07:44;97510;;;3.81;89.69
4326;BME280;58429;49.826;10.880;2023-12-14T00:08:44;97516;;;3.82;89.71
4326;BME280;58429;49.826;10.880;2023-12-14T00:09:44;97510;;;3.85;89.75
4326;BME280;58429;49.826;10.880;2023-12-14T00:10:44;97507;;;3.86;89.8
4326;BME280;58429;49.826;10.880;2023-12-14T00:11:44;97515;;;3.8;89.85
4326;BME280;58429;49.826;10.880;2023-12-14T00:12:44;97514;;;3.78;90.06
4326;BME280;58429;49.826;10.880;2023-12-14T00:13:44;97516;;;3.7;90.23
4326;BME280;58429;49.826;10.880;2023-12-14T00:14:44;97515;;;3.68;90.38
4326;BME280;58429;49.826;10.880;2023-12-14T00:15:44;97518;;;3.65;90.34
4326;BME280;58429;49.826;10.880;2023-12-14T00:16:44;97521;;;3.64;90.35
4326;BME280;58429;49.826;10.880;2023-12-14T00:17:44;97523;;;3.62;90.32
4326;BME280;58429;49.826;10.880;2023-12-14T00:18:44;97523;;;3.64;90.32
4326;BME280;58429;49.826;10.880;2023-12-14T00:19:44;97517;;;3.67;90.42
4326;BME280;58429;49.826;10.880;2023-12-14T00:20:44;97525;;;3.69;90.46
4326;BME280;58429;49.826;10.880;2023-12-14T00:21:44;97525;;;3.68;90.4
4326;BME280;58429;49.826;10.880;2023-12-14T00:22:44;97527;;;3.74;90.44
4326;BME280;58429;49.826;10.880;2023-12-14T00:23:44;97526;;;3.73;90.46
4326;BME280;58429;49.826;10.880;2023-12-14T00:24:45;97525;;;3.77;90.42
4326;BME280;58429;49.826;10.880;2023-12-14T00:25:44;97527;;;3.79;90.39
4326;BME280;58429;49.826;10.880;2023-12-14T00:26:44;97531;;;3.81;90.36
4326;BME280;58429;49.826;10.880;2023-12-14T00:27:44;97523;;;3.83;90.27
4326;BME280;58429;49.826;10.880;2023-12-14T00:28:45;97535;;;3.85;90.2
4326;BME280;58429;49.826;10.880;2023-12-14T00:29:44;97537;;;3.84;90.18
4326;BME280;58429;49.826;10.880;2023-12-14T00:30:44;97531;;;3.85;90.08
4326;BME280;58429;49.826;10.880;2023-12-14T00:31:44;97539;;;3.85;90.06
4326;BME280;58429;49.826;10.880;2023-12-14T00:32:44;97531;;;3.86;90
4326;BME280;58429;49.826;10.880;2023-12-14T00:33:44;97538;;;3.88;89.97
4326;BME280;58429;49.826;10.880;2023-12-14T00:34:44;97539;;;3.89;89.92
4326;BME280;58429;49.826;10.880;2023-12-14T00:35:44;97529;;;3.88;89.9
4326;BME280;58429;49.826;10.880;2023-12-14T00:36:44;97533;;;3.9;89.88
4326;BME280;58429;49.826;10.880;2023-12-14T00:37:44;97540;;;3.91;89.84
4326;BME280;58429;49.826;10.880;2023-12-14T00:38:44;97533;;;3.91;89.78
4326;BME280;58429;49.826;10.880;2023-12-14T00:39:44;97542;;;3.9;89.8
4326;BME280;58429;49.826;10.880;2023-12-14T00:40:45;97536;;;3.89;89.77
4326;BME280;58429;49.826;10.880;2023-12-14T00:41:44;97543;;;3.93;89.73
4326;BME280;58429;49.826;10.880;2023-12-14T00:42:44;97539;;;3.97;89.71
4326;BME280;58429;49.826;10.880;2023-12-14T00:43:44;97545;;;3.97;89.72
4326;BME280;58429;49.826;10.880;2023-12-14T00:44:44;97543;;;3.97;89.72
4326;BME280;58429;49.826;10.880;2023-12-14T00:45:44;97538;;;3.95;89.71
4326;BME280;58429;49.826;10.880;2023-12-14T00:46:44;97545;;;3.94;89.75
4326;BME280;58429;49.826;10.880;2023-12-14T00:47:44;97548;;;3.93;89.79
4326;BME280;58429;49.826;10.880;2023-12-14T00:48:44;97544;;;3.92;89.9
4326;BME280;58429;49.826;10.880;2023-12-14T00:49:44;97553;;;3.9;89.97
4326;BME280;58429;49.826;10.880;2023-12-14T00:50:44;97555;;;3.89;90.1
4326;BME280;58429;49.826;10.880;2023-12-14T00:51:45;97551;;;3.88;90.11
4326;BME280;58429;49.826;10.880;2023-12-14T00:52:44;97547;;;3.88;90.2
4326;BME280;58429;49.826;10.880;2023-12-14T00:53:44;97553;;;3.86;90.25
4326;BME280;58429;49.826;10.880;2023-12-14T00:54:44;97549;;;3.85;90.31
4326;BME280;58429;49.826;10.880;2023-12-14T00:55:44;97550;;;3.85;90.35
4326;BME280;58429;49.826;10.880;2023-12-14T00:56:45;97556;;;3.91;90.37
4326;BME280;58429;49.826;10.880;2023-12-14T00:57:44;97554;;;3.88;90.38
4326;BME280;58429;49.826;10.880;2023-12-14T00:58:44;97556;;;3.91;90.38
4326;BME280;58429;49.826;10.880;2023-12-14T00:59:44;97560;;;3.93;90.36
4326;BME280;58429;49.826;10.880;2023-12-14T01:00:44;97564;;;3.95;90.34
4326;BME280;58429;49.826;10.880;2023-12-14T01:01:44;97565;;;3.97;90.34
4326;BME280;58429;49.826;10.880;2023-12-14T01:02:44;97567;;;4;90.34
4326;BME280;58429;49.826;10.880;2023-12-14T01:03:44;97570;;;4.02;90.32
4326;BME280;58429;49.826;10.880;2023-12-14T01:04:45;97573;;;4.04;90.29
4326;BME280;58429;49.826;10.880;2023-12-14T01:05:44;97566;;;4.05;90.24
4326;BME280;58429;49.826;10.880;2023-12-14T01:06:44;97580;;;4.07;90.24
4326;BME280;58429;49.826;10.880;2023-12-14T01:07:44;97572;;;4.1;90.2
4326;BME280;58429;49.826;10.880;2023-12-14T01:08:44;97576;;;4.03;90.13
4326;BME280;58429;49.826;10.880;2023-12-14T01:09:44;97578;;;4.04;90.18
4326;BME280;58429;49.826;10.880;2023-12-14T01:10:44;97572;;;4.07;90.19
4326;BME280;58429;49.826;10.880;2023-12-14T01:11:44;97571;;;4.03;90.22
4326;BME280;58429;49.826;10.880;2023-12-14T01:12:45;97572;;;4.04;90.24
4326;BME280;58429;49.826;10.880;2023-12-14T01:13:44;97576;;;4.03;90.22
4326;BME280;58429;49.826;10.880;2023-12-14T01:14:44;97574;;;4.07;90.25
4326;BME280;58429;49.826;10.880;2023-12-14T01:15:45;97577;;;4.09;90.23
4326;BME280;58429;49.826;10.880;2023-12-14T01:16:45;97581;;;4.12;90.22
4326;BME280;58429;49.826;10.880;2023-12-14T01:17:45;97585;;;4.11;90.2
4326;BME280;58429;49.826;10.880;2023-12-14T01:18:44;97589;;;4.15;90.19
4326;BME280;58429;49.826;10.880;2023-12-14T01:19:44;97590;;;4.17;90.21
4326;BME280;58429;49.826;10.880;2023-12-14T01:20:44;97589;;;4.18;90.21
4326;BME280;58429;49.826;10.880;2023-12-14T01:21:44;97588;;;4.14;90.2
4326;BME280;58429;49.826;10.880;2023-12-14T01:22:45;97592;;;4.16;90.24
4326;BME280;58429;49.826;10.880;2023-12-14T01:23:44;97589;;;4.13;90.24
4326;BME280;58429;49.826;10.880;2023-12-14T01:24:44;97595;;;4.14;90.26
4326;BME280;58429;49.826;10.880;2023-12-14T01:25:44;97597;;;4.18;90.26
4326;BME280;58429;49.826;10.880;2023-12-14T01:26:44;97597;;;4.21;90.27
4326;BME280;58429;49.826;10.880;2023-12-14T01:27:44;97600;;;4.22;90.29
4326;BME280;58429;49.826;10.880;2023-12-14T01:28:45;97603;;;4.26;90.27
4326;BME280;58429;49.826;10.880;2023-12-14T01:29:44;97597;;;4.26;90.28
4326;BME280;58429;49.826;10.880;2023-12-14T01:30:44;97602;;;4.28;90.29
4326;BME280;58429;49.826;10.880;2023-12-14T01:31:44;97601;;;4.29;90.29
4326;BME280;58429;49.826;10.880;2023-12-14T01:32:44;97603;;;4.29;90.27
4326;BME280;58429;49.826;10.880;2023-12-14T01:33:44;97600;;;4.31;90.25
4326;BME280;58429;49.826;10.880;2023-12-14T01:34:44;97605;;;4.33;90.27
4326;BME280;58429;49.826;10.880;2023-12-14T01:35:44;97608;;;4.31;90.24
4326;BME280;58429;49.826;10.880;2023-12-14T01:36:45;97607;;;4.32;90.28
4326;BME280;58429;49.826;10.880;2023-12-14T01:37:44;97614;;;4.34;90.25
4326;BME280;58429;49.826;10.880;2023-12-14T01:38:44;97615;;;4.34;90.23
4326;BME280;58429;49.826;10.880;2023-12-14T01:39:44;97622;;;4.35;90.22
4326;BME280;58429;49.826;10.880;2023-12-14T01:40:44;97621;;;4.37;90.22
4326;BME280;58429;49.826;10.880;2023-12-14T01:41:44;97630;;;4.35;90.18
4326;BME280;58429;49.826;10.880;2023-12-14T01:42:45;97626;;;4.36;90.18
4326;BME280;58429;49.826;10.880;2023-12-14T01:43:45;97631;;;4.36;90.19
4326;BME280;58429;49.826;10.880;2023-12-14T01:44:45;97634;;;4.36;90.2
4326;BME280;58429;49.826;10.880;2023-12-14T01:45:44;97633;;;4.36;90.23
4326;BME280;58429;49.826;10.880;2023-12-14T01:46:44;97640;;;4.34;90.22
4326;BME280;58429;49.826;10.880;2023-12-14T01:47:44;97630;;;4.31;90.22
4326;BME280;58429;49.826;10.880;2023-12-14T01:48:44;97637;;;4.33;90.29
4326;BME280;58429;49.826;10.880;2023-12-14T01:49:44;97637;;;4.3;90.29
4326;BME280;58429;49.826;10.880;2023-12-14T01:50:44;97638;;;4.31;90.35
4326;BME280;58429;49.826;10.880;2023-12-14T01:51:45;97637;;;4.33;90.37
4326;BME280;58429;49.826;10.880;2023-12-14T01:52:44;97641;;;4.31;90.36
4326;BME280;58429;49.826;10.880;2023-12-14T01:53:44;97644;;;4.33;90.39
4326;BME280;58429;49.826;10.880;2023-12-14T01:54:44;97650;;;4.36;90.39
4326;BME280;58429;49.826;10.880;2023-12-14T01:55:45;97643;;;4.36;90.36
4326;BME280;58429;49.826;10.880;2023-12-14T01:56:44;97652;;;4.36;90.36
4326;BME280;58429;49.826;10.880;2023-12-14T01:57:45;97656;;;4.37;90.34
4326;BME280;58429;49.826;10.880;2023-12-14T01:58:44;97659;;;4.38;90.32
4326;BME280;58429;49.826;10.880;2023-12-14T01:59:45;97655;;;4.41;90.33
4326;BME280;58429;49.826;10.880;2023-12-14T02:00:46;97654;;;4.42;90.32
4326;BME280;58429;49.826;10.880;2023-12-14T02:01:45;97656;;;4.42;90.32
4326;BME280;58429;49.826;10.880;2023-12-14T02:02:45;97658;;;4.43;90.3
4326;BME280;58429;49.826;10.880;2023-12-14T02:03:45;97665;;;4.44;90.28
4326;BME280;58429;49.826;10.880;2023-12-14T02:04:45;97667;;;4.45;90.28
4326;BME280;58429;49.826;10.880;2023-12-14T02:05:45;97661;;;4.43;90.27
4326;BME280;58429;49.826;10.880;2023-12-14T02:06:44;97666;;;4.46;90.28
4326;BME280;58429;49.826;10.880;2023-12-14T02:07:45;97669;;;4.48;90.28
4326;BME280;58429;49.826;10.880;2023-12-14T02:08:44;97670;;;4.52;90.27
4326;BME280;58429;49.826;10.880;2023-12-14T02:09:44;97676;;;4.51;90.25
4326;BME280;58429;49.826;10.880;2023-12-14T02:10:45;97675;;;4.49;90.22
4326;BME280;58429;49.826;10.880;2023-12-14T02:11:45;97669;;;4.49;90.2
4326;BME280;58429;49.826;10.880;2023-12-14T02:12:44;97673;;;4.48;90.19
4326;BME280;58429;49.826;10.880;2023-12-14T02:13:44;97674;;;4.49;90.2
4326;BME280;58429;49.826;10.880;2023-12-14T02:14:44;97672;;;4.46;90.19
4326;BME280;58429;49.826;10.880;2023-12-14T02:15:45;97672;;;4.48;90.21
4326;BME280;58429;49.826;10.880;2023-12-14T02:16:44;97671;;;4.48;90.19
4326;BME280;58429;49.826;10.880;2023-12-14T02:17:45;97679;;;4.47;90.21
4326;BME280;58429;49.826;10.880;2023-12-14T02:18:44;97678;;;4.51;90.23
4326;BME280;58429;49.826;10.880;2023-12-14T02:19:44;97676;;;4.46;90.28
4326;BME280;58429;49.826;10.880;2023-12-14T02:20:45;97674;;;4.4;90.31
4326;BME280;58429;49.826;10.880;2023-12-14T02:21:45;97681;;;4.42;90.38
4326;BME280;58429;49.826;10.880;2023-12-14T02:22:48;97685;;;4.38;90.42
4326;BME280;58429;49.826;10.880;2023-12-14T02:23:45;97685;;;4.36;90.45
4326;BME280;58429;49.826;10.880;2023-12-14T02:24:45;97688;;;4.35;90.49
4326;BME280;58429;49.826;10.880;2023-12-14T02:25:44;97686;;;4.34;90.49
4326;BME280;58429;49.826;10.880;2023-12-14T02:26:45;97690;;;4.38;90.51
4326;BME280;58429;49.826;10.880;2023-12-14T02:27:45;97692;;;4.37;90.51
4326;BME280;58429;49.826;10.880;2023-12-14T02:28:44;97692;;;4.38;90.54
4326;BME280;58429;49.826;10.880;2023-12-14T02:29:44;97692;;;4.36;90.56
4326;BME280;58429;49.826;10.880;2023-12-14T02:30:44;97693;;;4.38;90.61
4326;BME280;58429;49.826;10.880;2023-12-14T02:31:45;97698;;;4.37;90.59
4326;BME280;58429;49.826;10.880;2023-12-14T02:32:45;97694;;;4.41;90.61
4326;BME280;58429;49.826;10.880;2023-12-14T02:33:45;97698;;;4.41;90.58
4326;BME280;58429;49.826;10.880;2023-12-14T02:34:44;97701;;;4.42;90.59
4326;BME280;58429;49.826;10.880;2023-12-14T02:35:45;97701;;;4.4;90.61
4326;BME280;58429;49.826;10.880;2023-12-14T02:36:44;97699;;;4.41;90.6
4326;BME280;58429;49.826;10.880;2023-12-14T02:37:44;97702;;;4.44;90.6
4326;BME280;58429;49.826;10.880;2023-12-14T02:38:45;97698;;;4.46;90.61
4326;BME280;58429;49.826;10.880;2023-12-14T02:39:45;97702;;;4.54;90.64
4326;BME280;58429;49.826;10.880;2023-12-14T02:40:45;97702;;;4.55;90.64
4326;BME280;58429;49.826;10.880;2023-12-14T02:41:44;97701;;;4.53;90.6
4326;BME280;58429;49.826;10.880;2023-12-14T02:42:45;97708;;;4.57;90.62
4326;BME280;58429;49.826;10.880;2023-12-14T02:43:44;97710;;;4.59;90.62
4326;BME280;58429;49.826;10.880;2023-12-14T02:44:44;97710;;;4.58;90.61
4326;BME280;58429;49.826;10.880;2023-12-14T02:45:44;97706;;;4.58;90.63
4326;BME280;58429;49.826;10.880;2023-12-14T02:46:44;97708;;;4.6;90.61
4326;BME280;58429;49.826;10.880;2023-12-14T02:47:44;97714;;;4.63;90.61
4326;BME280;58429;49.826;10.880;2023-12-14T02:48:45;97714;;;4.63;90.61
4326;BME280;58429;49.826;10.880;2023-12-14T02:49:45;97717;;;4.67;90.63
4326;BME280;58429;49.826;10.880;2023-12-14T02:50:44;97719;;;4.65;90.63
4326;BME280;58429;49.826;10.880;2023-12-14T02:51:45;97730;;;4.68;90.61
4326;BME280;58429;49.826;10.880;2023-12-14T02:52:45;97728;;;4.69;90.59
4326;BME280;58429;49.826;10.880;2023-12-14T02:53:44;97719;;;4.72;90.6
4326;BME280;58429;49.826;10.880;2023-12-14T02:54:45;97725;;;4.71;90.6
4326;BME280;58429;49.826;10.880;2023-12-14T02:55:45;97731;;;4.73;90.59
4326;BME280;58429;49.826;10.880;2023-12-14T02:56:45;97733;;;4.74;90.57
4326;BME280;58429;49.826;10.880;2023-12-14T02:57:45;97730;;;4.76;90.56
4326;BME280;58429;49.826;10.880;2023-12-14T02:58:45;97727;;;4.76;90.54
4326;BME280;58429;49.826;10.880;2023-12-14T02:59:45;97737;;;4.79;90.55
4326;BME280;58429;49.826;10.880;2023-12-14T03:00:45;97728;;;4.78;90.54
4326;BME280;58429;49.826;10.880;2023-12-14T03:01:45;97733;;;4.79;90.55
4326;BME280;58429;49.826;10.880;2023-12-14T03:02:45;97738;;;4.8;90.52
4326;BME280;58429;49.826;10.880;2023-12-14T03:03:46;97729;;;4.81;90.51
4326;BME280;58429;49.826;10.880;2023-12-14T03:04:45;97732;;;4.81;90.49
4326;BME280;58429;49.826;10.880;2023-12-14T03:05:45;97731;;;4.81;90.49
4326;BME280;58429;49.826;10.880;2023-12-14T03:06:45;97724;;;4.83;90.5
4326;BME280;58429;49.826;10.880;2023-12-14T03:07:45;97732;;;4.8;90.49
4326;BME280;58429;49.826;10.880;2023-12-14T03:08:45;97732;;;4.8;90.5
4326;BME280;58429;49.826;10.880;2023-12-14T03:09:46;97735;;;4.82;90.54
4326;BME280;58429;49.826;10.880;2023-12-14T03:10:45;97730;;;4.82;90.54
4326;BME280;58429;49.826;10.880;2023-12-14T03:11:45;97734;;;4.78;90.55
4326;BME280;58429;49.826;10.880;2023-12-14T03:12:45;97734;;;4.82;90.56
4326;BME280;58429;49.826;10.880;2023-12-14T03:13:45;97738;;;4.84;90.56
4326;BME280;58429;49.826;10.880;2023-12-14T03:14:45;97739;;;4.83;90.57
4326;BME280;58429;49.826;10.880;2023-12-14T03:15:45;97737;;;4.83;90.58
4326;BME280;58429;49.826;10.880;2023-12-14T03:16:45;97741;;;4.82;90.57
4326;BME280;58429;49.826;10.880;2023-12-14T03:17:45;97734;;;4.83;90.63
4326;BME280;58429;49.826;10.880;2023-12-14T03:18:45;97738;;;4.8;90.67
4326;BME280;58429;49.826;10.880;2023-12-14T03:19:45;97743;;;4.84;90.7
4326;BME280;58429;49.826;10.880;2023-12-14T03:20:45;97739;;;4.78;90.68
4326;BME280;58429;49.826;10.880;2023-12-14T03:21:45;97745;;;4.83;90.69
4326;BME280;58429;49.826;10.880;2023-12-14T03:22:45;97742;;;4.8;90.7
4326;BME280;58429;49.826;10.880;2023-12-14T03:23:45;97743;;;4.83;90.72
4326;BME280;58429;49.826;10.880;2023-12-14T03:24:45;97744;;;4.85;90.74
4326;BME280;58429;49.826;10.880;2023-12-14T03:25:45;97747;;;4.84;90.73
4326;BME280;58429;49.826;10.880;2023-12-14T03:26:45;97758;;;4.86;90.74
4326;BME280;58429;49.826;10.880;2023-12-14T03:27:45;97759;;;4.89;90.75
4326;BME280;58429;49.826;10.880;2023-12-14T03:28:45;97754;;;4.86;90.74
4326;BME280;58429;49.826;10.880;2023-12-14T03:29:45;97760;;;4.87;90.76
4326;BME280;58429;49.826;10.880;2023-12-14T03:30:45;97755;;;4.88;90.77
4326;BME280;58429;49.826;10.880;2023-12-14T03:31:45;97758;;;4.87;90.77
4326;BME280;58429;49.826;10.880;2023-12-14T03:32:45;97759;;;4.89;90.79
4326;BME280;58429;49.826;10.880;2023-12-14T03:33:45;97764;;;4.87;90.81
4326;BME280;58429;49.826;10.880;2023-12-14T03:34:45;97755;;;4.88;90.83
4326;BME280;58429;49.826;10.880;2023-12-14T03:35:45;97764;;;4.89;90.83
4326;BME280;58429;49.826;10.880;2023-12-14T03:36:45;97768;;;4.9;90.83
4326;BME280;58429;49.826;10.880;2023-12-14T03:37:45;97767;;;4.91;90.84
4326;BME280;58429;49.826;10.880;2023-12-14T03:38:45;97772;;;4.88;90.87
4326;BME280;58429;49.826;10.880;2023-12-14T03:39:45;97773;;;4.88;90.95
4326;BME280;58429;49.826;10.880;2023-12-14T03:40:45;97779;;;4.88;90.98
4326;BME280;58429;49.826;10.880;2023-12-14T03:41:45;97777;;;4.87;91.09
4326;BME280;58429;49.826;10.880;2023-12-14T03:42:45;97779;;;4.85;91.18
4326;BME280;58429;49.826;10.880;2023-12-14T03:43:45;97780;;;4.86;91.21
4326;BME280;58429;49.826;10.880;2023-12-14T03:44:45;97783;;;4.86;91.22
4326;BME280;58429;49.826;10.880;2023-12-14T03:45:45;97783;;;4.85;91.2
4326;BME280;58429;49.826;10.880;2023-12-14T03:46:45;97783;;;4.86;91.23
4326;BME280;58429;49.826;10.880;2023-12-14T03:47:45;97786;;;4.87;91.27
4326;BME280;58429;49.826;10.880;2023-12-14T03:48:45;97790;;;4.87;91.27
4326;BME280;58429;49.826;10.880;2023-12-14T03:49:45;97787;;;4.87;91.24
4326;BME280;58429;49.826;10.880;2023-12-14T03:50:45;97787;;;4.87;91.25
4326;BME280;58429;49.826;10.880;2023-12-14T03:51:45;97790;;;4.87;91.26
4326;BME280;58429;49.826;10.880;2023-12-14T03:52:45;97786;;;4.87;91.27
4326;BME280;58429;49.826;10.880;2023-12-14T03:53:45;97790;;;4.87;91.28
4326;BME280;58429;49.826;10.880;2023-12-14T03:54:45;97795;;;4.85;91.31
4326;BME280;58429;49.826;10.880;2023-12-14T03:55:45;97803;;;4.89;91.32
4326;BME280;58429;49.826;10.880;2023-12-14T03:56:45;97802;;;4.87;91.3
4326;BME280;58429;49.826;10.880;2023-12-14T03:57:45;97802;;;4.89;91.31
4326;BME280;58429;49.826;10.880;2023-12-14T03:58:45;97800;;;4.92;91.32
4326;BME280;58429;49.826;10.880;2023-12-14T03:59:50;97805;;;4.91;91.32
4326;BME280;58429;49.826;10.880;2023-12-14T04:00:45;97808;;;4.9;91.29
4326;BME280;58429;49.826;10.880;2023-12-14T04:01:45;97810;;;4.93;91.3
4326;BME280;58429;49.826;10.880;2023-12-14T04:02:45;97811;;;4.93;91.31
4326;BME280;58429;49.826;10.880;2023-12-14T04:03:45;97814;;;4.95;91.31
4326;BME280;58429;49.826;10.880;2023-12-14T04:04:45;97819;;;4.97;91.3
4326;BME280;58429;49.826;10.880;2023-12-14T04:05:45;97813;;;5;91.3
4326;BME280;58429;49.826;10.880;2023-12-14T04:06:45;97816;;;4.97;91.31
4326;BME280;58429;49.826;10.880;2023-12-14T04:07:45;97819;;;4.99;91.31
4326;BME280;58429;49.826;10.880;2023-12-14T04:08:45;97818;;;4.96;91.31
4326;BME280;58429;49.826;10.880;2023-12-14T04:09:45;97812;;;4.96;91.39
4326;BME280;58429;49.826;10.880;2023-12-14T04:10:45;97814;;;4.91;91.41
4326;BME280;58429;49.826;10.880;2023-12-14T04:11:45;97815;;;4.93;91.41
4326;BME280;58429;49.826;10.880;2023-12-14T04:12:45;97822;;;4.91;91.42
4326;BME280;58429;49.826;10.880;2023-12-14T04:13:45;97825;;;4.93;91.43
4326;BME280;58429;49.826;10.880;2023-12-14T04:14:45;97827;;;4.92;91.44
4326;BME280;58429;49.826;10.880;2023-12-14T04:15:45;97833;;;4.94;91.42
4326;BME280;58429;49.826;10.880;2023-12-14T04:16:45;97830;;;4.95;91.4
4326;BME280;58429;49.826;10.880;2023-12-14T04:17:45;97830;;;5;91.42
4326;BME280;58429;49.826;10.880;2023-12-14T04:18:45;97833;;;4.97;91.39
4326;BME280;58429;49.826;10.880;2023-12-14T04:19:45;97832;;;4.98;91.36
4326;BME280;58429;49.826;10.880;2023-12-14T04:20:45;97832;;;4.98;91.35
4326;BME280;58429;49.826;10.880;2023-12-14T04:21:45;97827;;;4.96;91.34
4326;BME280;58429;49.826;10.880;2023-12-14T04:22:45;97832;;;4.99;91.36
4326;BME280;58429;49.826;10.880;2023-12-14T04:23:45;97837;;;4.96;91.35
4326;BME280;58429;49.826;10.880;2023-12-14T04:24:45;97843;;;4.95;91.34
4326;BME280;58429;49.826;10.880;2023-12-14T04:25:45;97849;;;4.99;91.34
4326;BME280;58429;49.826;10.880;2023-12-14T04:26:45;97842;;;5.01;91.34
4326;BME280;58429;49.826;10.880;2023-12-14T04:27:45;97840;;;5.02;91.3
4326;BME280;58429;49.826;10.880;2023-12-14T04:28:45;97838;;;5.03;91.29
4326;BME280;58429;49.826;10.880;2023-12-14T04:29:45;97851;;;5.03;91.29
4326;BME280;58429;49.826;10.880;2023-12-14T04:30:45;97853;;;5.06;91.28
4326;BME280;58429;49.826;10.880;2023-12-14T04:31:45;97846;;;5;91.23
4326;BME280;58429;49.826;10.880;2023-12-14T04:32:45;97849;;;5.05;91.25
4326;BME280;58429;49.826;10.880;2023-12-14T04:33:45;97845;;;5.03;91.25
4326;BME280;58429;49.826;10.880;2023-12-14T04:34:45;97849;;;5.08;91.26
4326;BME280;58429;49.826;10.880;2023-12-14T04:35:45;97850;;;5.06;91.24
4326;BME280;58429;49.826;10.880;2023-12-14T04:36:45;97850;;;5.05;91.26
4326;BME280;58429;49.826;10.880;2023-12-14T04:37:45;97851;;;5.01;91.23
4326;BME280;58429;49.826;10.880;2023-12-14T04:38:45;97855;;;5.05;91.22
4326;BME280;58429;49.826;10.880;2023-12-14T04:39:45;97855;;;5.04;91.21
4326;BME280;58429;49.826;10.880;2023-12-14T04:40:45;97863;;;5.04;91.22
4326;BME280;58429;49.826;10.880;2023-12-14T04:41:45;97864;;;5.04;91.21
4326;BME280;58429;49.826;10.880;2023-12-14T04:42:45;97857;;;5.03;91.21
4326;BME280;58429;49.826;10.880;2023-12-14T04:43:45;97873;;;5.03;91.22
4326;BME280;58429;49.826;10.880;2023-12-14T04:44:45;97870;;;5.05;91.2
4326;BME280;58429;49.826;10.880;2023-12-14T04:45:45;97866;;;5.08;91.19
4326;BME280;58429;49.826;10.880;2023-12-14T04:46:45;97870;;;5.09;91.16
4326;BME280;58429;49.826;10.880;2023-12-14T04:47:45;97876;;;5.06;91.13
4326;BME280;58429;49.826;10.880;2023-12-14T04:48:45;97870;;;5.09;91.13
4326;BME280;58429;49.826;10.880;2023-12-14T04:49:45;97869;;;5.08;91.11
4326;BME280;58429;49.826;10.880;2023-12-14T04:50:45;97875;;;5.12;91.11
4326;BME280;58429;49.826;10.880;2023-12-14T04:51:45;97878;;;5.09;91.07
4326;BME280;58429;49.826;10.880;2023-12-14T04:52:45;97877;;;5.09;91.06
4326;BME280;58429;49.826;10.880;2023-12-14T04:53:45;97876;;;5.1;91.04
4326;BME280;58429;49.826;10.880;2023-12-14T04:54:45;97878;;;5.1;91.02
4326;BME280;58429;49.826;10.880;2023-12-14T04:55:45;97880;;;5.1;91
4326;BME280;58429;49.826;10.880;2023-12-14T04:56:45;97876;;;5.14;90.99
4326;BME280;58429;49.826;10.880;2023-12-14T04:57:45;97879;;;5.12;90.99
4326;BME280;58429;49.826;10.880;2023-12-14T04:58:45;97882;;;5.14;90.97
4326;BME280;58429;49.826;10.880;2023-12-14T04:59:45;97881;;;5.13;90.95
4326;BME280;58429;49.826;10.880;2023-12-14T05:00:45;97886;;;5.11;90.93
4326;BME280;58429;49.826;10.880;2023-12-14T05:01:45;97883;;;5.12;90.93
4326;BME280;58429;49.826;10.880;2023-12-14T05:02:46;97889;;;5.13;90.9
4326;BME280;58429;49.826;10.880;2023-12-14T05:03:45;97887;;;5.14;90.89
4326;BME280;58429;49.826;10.880;2023-12-14T05:04:45;97884;;;5.16;90.91
4326;BME280;58429;49.826;10.880;2023-12-14T05:05:45;97887;;;5.16;90.9
4326;BME280;58429;49.826;10.880;2023-12-14T05:06:45;97888;;;5.15;90.86
4326;BME280;58429;49.826;10.880;2023-12-14T05:07:45;97892;;;5.15;90.88
4326;BME280;58429;49.826;10.880;2023-12-14T05:08:45;97885;;;5.18;90.84
4326;BME280;58429;49.826;10.880;2023-12-14T05:09:45;97890;;;5.17;90.81
4326;BME280;58429;49.826;10.880;2023-12-14T05:10:45;97885;;;5.17;90.8
4326;BME280;58429;49.826;10.880;2023-12-14T05:11:45;97889;;;5.16;90.79
4326;BME280;58429;49.826;10.880;2023-12-14T05:12:45;97895;;;5.17;90.75
4326;BME280;58429;49.826;10.880;2023-12-14T05:13:45;97895;;;5.18;90.76
4326;BME280;58429;49.826;10.880;2023-12-14T05:14:45;97892;;;5.18;90.74
4326;BME280;58429;49.826;10.880;2023-12-14T05:15:45;97895;;;5.2;90.72
4326;BME280;58429;49.826;10.880;2023-12-14T05:16:45;97901;;;5.16;90.71
4326;BME280;58429;49.826;10.880;2023-12-14T05:17:45;97895;;;5.23;90.7
4326;BME280;58429;49.826;10.880;2023-12-14T05:18:45;97908;;;5.18;90.68
4326;BME280;58429;49.826;10.880;2023-12-14T05:19:45;97915;;;5.18;90.65
4326;BME280;58429;49.826;10.880;2023-12-14T05:20:45;97909;;;5.21;90.66
4326;BME280;58429;49.826;10.880;2023-12-14T05:21:45;97904;;;5.17;90.6
4326;BME280;58429;49.826;10.880;2023-12-14T05:22:45;97913;;;5.24;90.63
4326;BME280;58429;49.826;10.880;2023-12-14T05:23:45;97919;;;5.23;90.59
4326;BME280;58429;49.826;10.880;2023-12-14T05:24:46;97919;;;5.26;90.6
4326;BME280;58429;49.826;10.880;2023-12-14T05:25:45;97915;;;5.18;90.57
4326;BME280;58429;49.826;10.880;2023-12-14T05:26:45;97920;;;5.24;90.56
4326;BME280;58429;49.826;10.880;2023-12-14T05:27:45;97924;;;5.21;90.52
4326;BME280;58429;49.826;10.880;2023-12-14T05:28:45;97923;;;5.23;90.54
4326;BME280;58429;49.826;10.880;2023-12-14T05:29:45;97924;;;5.23;90.55
4326;BME280;58429;49.826;10.880;2023-12-14T05:30:45;97923;;;5.26;90.53
4326;BME280;58429;49.826;10.880;2023-12-14T05:31:45;97930;;;5.24;90.49
4326;BME280;58429;49.826;10.880;2023-12-14T05:32:45;97930;;;5.25;90.5
4326;BME280;58429;49.826;10.880;2023-12-14T05:33:45;97929;;;5.25;90.51
4326;BME280;58429;49.826;10.880;2023-12-14T05:34:45;97932;;;5.28;90.49
4326;BME280;58429;49.826;10.880;2023-12-14T05:35:45;97932;;;5.26;90.47
4326;BME280;58429;49.826;10.880;2023-12-14T05:36:45;97938;;;5.2;90.45